NY Terminal Aviation Weather Discussion (AFD) - Prepared: 658 PM EST WED DEC 17 2014
DEEPENING LOW PRESSURE EAST OF NEW ENGLAND WILL MOVE INTO THE
CANADIAN MARITIMES THROUGH THU.

AS THE AREA REMAINS UNDER THE INFLUENCE OF THE LOW...SCT-
BKN 040-050 CIGS SHOULD PREVAIL THROUGH MUCH OF THE OVERNIGHT.

ISOLD SHOWERS ACROSS NYC METRO TERMINALS THROUGH 01Z AND KGON
THROUGH 02Z. THEN ISOLD RAIN/SNOW SHOWERS LATE TONIGHT FOR
NORTHERN AND EASTERN TERMINALS. LOW PROB OF BRIEF MVFR CONDS WITH
THESE SHOWERS.

WINDS GENERALLY 290-330 MAGNETIC THROUGH THURSDAY. WINDS INCREASE
TO NEAR 15-20G25-30KT...HIGHEST AT THE NYC METROS...AFTER 05-07Z
AS A STRONG DISTURBANCE MOVES ACROSS. THESE WINDS AND GUSTS SHOULD
BRIEFLY DECREASE BETWEEN 10-12Z OUTSIDE OF NYC METRO
TERMINALS...THEN PICK UP AFTER 14Z-15Z. WINDS AND GUSTS DECREASE
LATE THURSDAY INTO EVENING.

5 Day General Aviation Outlook:

.OUTLOOK FOR 00Z FRI THROUGH SAT...
.THU NIGHT...VFR. DIMINISHING WINDS IN THE EVENING. GUSTS THROUGH
THE EVENING FOR NYC METRO TERMINALS.
.FRI-SAT...VFR. 
.SAT NIGHT...VFR TO START...THEN MVFR OR LOWER CONDITIONS WITH
LIGHT PRECIP...RAIN AT MOST TERMINALS...SNOW AT KSWF...AND RAIN OR
SNOW KHPN.
.SUNDAY...MVFR OR LOWER CONDITIONS...WITH LIGHT PRECIP CHANGING TO 
RAIN THROUGHOUT. 
.MON...CHANCE OF RAIN WITH MVFR OR LOWER CONDITIONS.


*************************************************************************************
KJFK Terminal Weather:

FTNA35 KJFK 180245 RRA
KJFK 180238Z 1803/1906 29015G21KT P6SM SCT035 BKN050
     FM180600 29019G27KT P6SM SCT035
     TEMPO 1806/1810 BKN035
     FM182200 30014G20KT P6SM SCT035
     FM190200 31010KT P6SM SCT035
KJFK FCSTER COMMENTS: WINDS WILL WAVER BTWN 290 TO 320 MAGNETIC ON
THU...BUT SHOULD AVERAGE JUST LEFT OF 310 MAG. 

*************************************************************************************
KLGA Terminal Weather:
FTUS80 KLGA 180239 AAB
KLGA 180238Z 1803/1824 30015G21KT P6SM SCT035 BKN050
     FM180600 30018G26KT P6SM SCT035
      TEMPO 1806/1810 BKN035
     FM182200 31013G20KT P6SM SCT035
KLGA FCSTER COMMENTS: WINDS WILL WAVER BTWN 300 TO 330
MAGNETIC ON THU...BUT SHOULD AVERAGE JUST RIGHT OF 310 MAG.

*************************************************************************************
KEWR Terminal Weather:
FTUS80 KEWR 180239 AAA
KEWR 180238Z 1803/1906 29012G18KT P6SM SCT035 BKN050
     FM180600 29018G26KT P6SM SCT035
      TEMPO 1806/1810 BKN035
     FM182200 30012G18KT P6SM SCT035
     FM190100 31010KT P6SM SCT035
KEWR FCSTER COMMENTS: WINDS WILL WAVER BTWN 290 TO 320 MAGNETIC ON
THU...BUT SHOULD AVERAGE JUST LEFT OF 310 MAG.

*************************************************************************************
KTEB Terminal Weather:
FTUS80 KTEB 180239 AAB
KTEB 180238Z 1803/1824 29011KT P6SM SCT035 BKN050
     FM180600 29012G20KT P6SM SCT035
      TEMPO 1806/1810 BKN035
     FM181400 30016G24KT P6SM SCT035
     FM182200 30010KT P6SM SCT035
KTEB FCSTER COMMENTS: NO UNSCHEDULED AMENDMENTS EXPECTED.

*************************************************************************************
KHPN Terminal Weather:
FTUS80 KHPN 180239 AAA
KHPN 180238Z 1803/1824 30013KT P6SM SCT035 BKN050
     FM180600 30014G22KT P6SM SCT035
      TEMPO 1806/1810 P6SM -SHSN BKN035
     FM181400 31017G25KT P6SM SCT035
     FM182200 31012KT P6SM SCT035 AMD NOT SKED
KHPN FCSTER COMMENTS: NO UNSCHEDULED AMENDMENTS EXPECTED. 

*************************************************************************************
KISP Terminal Weather:
FTUS80 KISP 180239 AAA
KISP 180238Z 1803/1824 29010KT P6SM SCT050
     FM180700 29014G22KT P6SM SCT040
      TEMPO 1807/1811 P6SM -SHSN BKN040
     FM181400 30017G25KT P6SM SCT035
     FM182200 31012KT P6SM SCT035
KISP FCSTER COMMENTS: NO UNSCHEDULED AMENDMENTS EXPECTED.

*************************************************************************************
5 Day General Outlook:

.OUTLOOK FOR 00Z FRI THROUGH SAT...
.THU NIGHT...VFR. DIMINISHING WINDS IN THE EVENING. GUSTS THROUGH
THE EVENING FOR NYC METRO TERMINALS.
.FRI-SAT...VFR. 
.SAT NIGHT...VFR TO START...THEN MVFR OR LOWER CONDITIONS WITH
LIGHT PRECIP...RAIN AT MOST TERMINALS...SNOW AT KSWF...AND RAIN OR
SNOW KHPN.
.SUNDAY...MVFR OR LOWER CONDITIONS...WITH LIGHT PRECIP CHANGING TO 
RAIN THROUGHOUT. 
.MON...CHANCE OF RAIN WITH MVFR OR LOWER CONDITIONS.


Click the Print Icon print icon below to print the briefing sheet